Saturday, December 15, 2018, 1:17 PM EST
Back to Local

KPWM, Portland International Jetport

Location: Portland, ME, United States Lat: 43.65
Local Time: 1:17 PM EST (18:17 GMT) Lon: -70.3
Time Zone: US/Eastern Elev: 75 ft

Show me the last for .
Show Coded

Time T Td Feel RH Dir Speed Gust Alt SLP Vis Weather Sky Remarks
2018-12-15 12:51 49 32 43 51 30° 8 17 30.15 30.15 10 FEW030 BKN250 6-hr Min Temp (1pm): 39.0°F
6-hr Max Temp (1pm): 50.0°F
2018-12-15 11:51 50 38 47 63 Variable 7 - 30.15 30.15 10 FEW150 BKN250 None
2018-12-15 10:51 48 39 45 70 280° 7 - 30.15 30.15 10 OVC200 None
2018-12-15 09:51 47 39 43 73 250° 8 - 30.15 30.15 10 BKN250 None
2018-12-15 08:51 42 39 40 88 240° 3 - 30.15 30.15 10 SCT200 BKN250 None
2018-12-15 07:51 40 38 37 92 250° 5 - 30.14 30.14 10 BKN200 None
2018-12-15 06:51 41 39 - 92 - Calm - 30.12 30.12 10 BKN200 6-hr Min Temp (7am): 37.9°F
6-hr Max Temp (7am): 42.1°F
2018-12-15 05:51 41 39 35 92 210° 9 - 30.10 30.10 10 OVC200 None
2018-12-15 04:51 40 38 34 92 230° 8 - 30.10 30.10 10 FEW090 OVC200 None
2018-12-15 03:51 39 37 35 92 230° 6 - 30.10 30.11 10 CLR None
2018-12-15 02:51 39 36 37 88 240° 3 - 30.11 30.11 10 CLR None
2018-12-15 01:51 41 37 36 85 210° 8 - 30.13 30.13 10 OVC090 None
2018-12-15 00:51 41 37 38 85 Variable 5 - 30.14 30.14 10 BKN085 OVC110 6-hr Min Temp (1am): 39.9°F
6-hr Max Temp (1am): 43.0°F
2018-12-14 23:51 41 37 36 85 210° 8 - 30.16 30.16 10 OVC070 24-hr Min Temp (12am): 23.0°F
24-hr Max Temp (12am): 43.0°F
2018-12-14 23:06 42 37 36 82 210° 10 - 30.20 - 10 SCT029 OVC070 None
2018-12-14 22:51 42 37 37 82 210° 8 - 30.20 30.20 10 BKN028 None
2018-12-14 22:35 42 37 37 82 210° 8 - 30.21 - 10 OVC028 None
2018-12-14 21:51 42 36 38 78 210° 7 - 30.22 30.22 10 FEW028 OVC037 None
2018-12-14 20:51 42 37 33 82 190° 12 20 30.23 30.23 10 OVC040 None
2018-12-14 19:51 41 36 32 82 180° 13 21 30.28 30.28 10 SCT038 OVC060 None
2018-12-14 18:51 40 34 31 79 180° 10 16 30.32 30.32 10 FEW065 6-hr Min Temp (7pm): 39.0°F
6-hr Max Temp (7pm): 41.0°F
2018-12-14 17:51 40 33 36 76 200° 6 - 30.35 30.36 10 BKN049 OVC075 None
2018-12-14 16:51 41 33 36 73 210° 7 - 30.37 30.37 10 OVC050 None
2018-12-14 15:51 40 31 30 69 180° 12 22 30.37 30.37 10 OVC049 None
2018-12-14 14:51 40 28 37 62 170° 5 - 30.37 30.37 10 BKN050 None
2018-12-14 13:51 41 27 36 57 180° 7 - 30.39 30.40 10 FEW050 BKN250 None

Support USWX by starting your Amazon purchase here.